This is the latest recevied weather packets stored in our database for station/object OM8AKX-4. If no packets are shown the sender has not sent any weather packets the latest 10 day(s).
| Time | Temp. | Humidity | Pressure | Rain* | Wind** | Luminosity | Snow |
|---|---|---|---|---|---|---|---|
| 1777436675 | 1.11° C | 45% | 878.8 hPa | - | - | - | - |
| 1777435775 | 2.22° C | 44% | 878.7 hPa | - | - | - | - |
| 1777434875 | 3.33° C | 42% | 878.6 hPa | - | - | - | - |
| 1777433975 | -0.56° C | 51% | 878.5 hPa | - | - | - | - |
| 1777433075 | -2.78° C | 56% | 878.6 hPa | - | - | - | - |
| 1777432175 | -3.89° C | 57% | 878.8 hPa | - | - | - | - |
| 1777431275 | -3.89° C | 57% | 879 hPa | - | - | - | - |
| 1777430374 | -3.89° C | 57% | 878.7 hPa | - | - | - | - |
| 1777429474 | -3.89° C | 57% | 878.7 hPa | - | - | - | - |
| 1777428574 | -3.89° C | 57% | 878.8 hPa | - | - | - | - |
| 1777427674 | -3.33° C | 57% | 878.9 hPa | - | - | - | - |
| 1777426773 | -3.33° C | 56% | 878.8 hPa | - | - | - | - |
| 1777425873 | -3.33° C | 56% | 878.7 hPa | - | - | - | - |
| 1777424975 | -3.33° C | 56% | 878.8 hPa | - | - | - | - |
| 1777424075 | -3.33° C | 55% | 878.9 hPa | - | - | - | - |
| 1777423175 | -3.33° C | 55% | 879.1 hPa | - | - | - | - |
| 1777422275 | -2.78° C | 55% | 879.1 hPa | - | - | - | - |
| 1777421375 | -3.33° C | 55% | 879.1 hPa | - | - | - | - |
| 1777420475 | -2.78° C | 54% | 879.4 hPa | - | - | - | - |
| 1777419575 | -2.78° C | 54% | 878.9 hPa | - | - | - | - |
| 1777418675 | -2.78° C | 54% | 879.1 hPa | - | - | - | - |
| 1777417775 | -2.78° C | 53% | 879 hPa | - | - | - | - |
| 1777416875 | -2.78° C | 52% | 879.6 hPa | - | - | - | - |
| 1777415975 | -2.22° C | 52% | 879.1 hPa | - | - | - | - |
| 1777415075 | -2.22° C | 51% | 879.6 hPa | - | - | - | - |
* Rain since midnight (hover to see other rain measurements)
** Current wind speed in m/s (hover to see current wind gust speed)